Time;durP1;ratioP1;P1;durP2;ratioP2;P2;SDS_P1;SDS_P2;PMS_P1;PMS_P2;Temp;Humidity;BMP_temperature;BMP_pressure;BME280_temperature;BME280_humidity;BME280_pressure;Samples;Min_cycle;Max_cycle;Signal;HPM_P1;HPM_P2
2023/12/25 00:00:13;;;;;;;4.93;0.45;;;12.60;99.90;;;;;;4965229;28;20046;-75
2023/12/25 00:02:39;;;;;;;4.55;0.82;;;12.60;99.90;;;;;;4971418;28;20460;-74
2023/12/25 00:05:05;;;;;;;3.58;0.50;;;12.60;99.90;;;;;;4973813;28;20049;-75
2023/12/25 00:07:31;;;;;;;3.55;0.63;;;12.60;99.90;;;;;;4971188;28;20066;-75
2023/12/25 00:09:56;;;;;;;5.65;0.40;;;12.50;99.90;;;;;;4972595;28;20046;-75
2023/12/25 00:12:23;;;;;;;2.83;0.80;;;12.50;99.90;;;;;;4970989;28;20046;-75
2023/12/25 00:14:49;;;;;;;2.53;0.40;;;12.50;99.90;;;;;;4972767;28;20042;-74
2023/12/25 00:17:15;;;;;;;4.57;0.63;;;12.50;99.90;;;;;;4969111;28;20533;-74
2023/12/25 00:19:41;;;;;;;4.35;0.47;;;12.50;99.90;;;;;;4971175;28;20054;-75
2023/12/25 00:22:07;;;;;;;0.98;0.28;;;12.40;99.90;;;;;;4971251;28;20042;-75
2023/12/25 00:24:33;;;;;;;14.80;2.58;;;12.50;99.90;;;;;;4956620;28;20045;-75
2023/12/25 00:26:58;;;;;;;4.15;0.75;;;12.50;99.90;;;;;;4955958;28;20047;-75
2023/12/25 00:29:24;;;;;;;1.65;0.47;;;12.50;99.90;;;;;;4972285;28;20043;-74
2023/12/25 00:31:50;;;;;;;3.80;0.15;;;12.50;99.90;;;;;;4971619;28;20440;-75
2023/12/25 00:34:16;;;;;;;1.35;0.22;;;12.40;99.90;;;;;;4956524;28;20053;-75
2023/12/25 00:36:41;;;;;;;3.20;0.47;;;12.40;99.90;;;;;;4969043;28;20675;-75
2023/12/25 00:39:08;;;;;;;3.30;0.40;;;12.40;99.90;;;;;;4972326;28;20051;-75
2023/12/25 00:41:33;;;;;;;2.30;0.55;;;12.40;99.90;;;;;;4959096;28;20046;-75
2023/12/25 00:43:59;;;;;;;6.72;1.13;;;12.30;99.90;;;;;;4970137;28;20051;-74
2023/12/25 00:46:25;;;;;;;1.88;0.22;;;12.30;99.90;;;;;;4969955;28;20454;-75
2023/12/25 00:48:51;;;;;;;1.25;0.30;;;12.30;99.90;;;;;;4954754;28;20391;-74
2023/12/25 00:51:17;;;;;;;0.32;0.10;;;12.20;99.90;;;;;;4954354;28;20042;-75
2023/12/25 00:53:42;;;;;;;0.98;0.43;;;12.20;99.90;;;;;;4971033;28;20057;-75
2023/12/25 00:56:08;;;;;;;1.63;0.10;;;12.20;99.90;;;;;;4971190;28;20041;-75
2023/12/25 00:58:34;;;;;;;3.40;0.17;;;12.20;99.90;;;;;;4968988;28;20038;-75
2023/12/25 01:01:00;;;;;;;0.10;0.00;;;12.20;99.90;;;;;;4971348;28;20054;-75
2023/12/25 01:03:25;;;;;;;0.63;0.40;;;12.20;99.90;;;;;;4971011;28;20046;-75
2023/12/25 01:05:51;;;;;;;1.35;0.30;;;12.20;99.90;;;;;;4954039;28;20733;-75
2023/12/25 01:08:17;;;;;;;6.75;0.75;;;12.10;99.90;;;;;;4969211;28;20077;-75
2023/12/25 01:10:43;;;;;;;0.73;0.55;;;12.10;99.90;;;;;;4970761;28;20112;-75
2023/12/25 01:13:08;;;;;;;0.40;0.03;;;12.10;99.90;;;;;;4970273;28;20046;-75
2023/12/25 01:15:34;;;;;;;4.75;0.93;;;12.00;99.90;;;;;;4970942;28;20050;-75
2023/12/25 01:18:00;;;;;;;3.42;0.82;;;12.00;99.90;;;;;;4968328;28;20050;-75
2023/12/25 01:20:25;;;;;;;0.00;0.00;;;12.00;99.90;;;;;;4947726;28;20046;-75
2023/12/25 01:22:51;;;;;;;4.22;0.45;;;12.00;99.90;;;;;;4970704;28;20053;-75
2023/12/25 01:25:17;;;;;;;1.88;0.20;;;12.00;99.90;;;;;;4970075;28;20038;-75
2023/12/25 01:27:43;;;;;;;3.33;0.73;;;12.00;99.90;;;;;;4955215;28;20643;-75
2023/12/25 01:30:12;;;;;;;1.02;0.10;;;12.00;99.90;;;;;;4966905;28;20518;-75
2023/12/25 01:32:38;;;;;;;1.10;0.40;;;12.00;99.90;;;;;;4967925;28;20046;-75
2023/12/25 01:35:05;;;;;;;0.90;0.10;;;12.00;99.90;;;;;;4968642;28;20050;-75
2023/12/25 01:37:31;;;;;;;4.97;0.57;;;12.00;99.90;;;;;;4967757;28;20038;-75
2023/12/25 01:39:57;;;;;;;3.50;1.13;;;12.00;99.90;;;;;;4970368;28;20145;-75
2023/12/25 01:42:22;;;;;;;4.15;0.85;;;12.00;99.90;;;;;;4954449;28;20051;-75
2023/12/25 01:44:48;;;;;;;3.47;0.70;;;12.00;99.90;;;;;;4969858;28;20074;-75
2023/12/25 01:47:18;;;;;;;2.30;1.27;;;12.00;99.90;;;;;;4970623;28;20063;-75
2023/12/25 01:49:44;;;;;;;4.43;0.60;;;12.00;99.90;;;;;;4951807;28;20065;-75
2023/12/25 01:52:11;;;;;;;0.25;0.22;;;12.00;99.90;;;;;;4954999;28;20051;-75
2023/12/25 01:54:38;;;;;;;1.10;0.70;;;12.00;99.90;;;;;;4968131;28;20058;-75
2023/12/25 01:57:05;;;;;;;1.85;0.43;;;12.00;99.90;;;;;;4970966;28;20589;-75
2023/12/25 01:59:31;;;;;;;2.45;0.70;;;12.00;99.90;;;;;;4953904;28;20410;-75
2023/12/25 02:01:58;;;;;;;2.58;0.20;;;12.00;99.90;;;;;;4968580;28;20133;-74
2023/12/25 02:04:26;;;;;;;0.15;0.00;;;12.00;99.90;;;;;;4968948;28;20078;-75
2023/12/25 02:06:53;;;;;;;0.70;0.35;;;12.00;99.90;;;;;;4969526;28;20049;-74
2023/12/25 02:09:18;;;;;;;3.45;0.47;;;12.00;99.90;;;;;;4968897;28;20126;-74
2023/12/25 02:11:44;;;;;;;0.00;0.00;;;12.00;99.90;;;;;;4968023;28;20077;-75
2023/12/25 02:14:11;;;;;;;0.40;0.17;;;12.00;99.90;;;;;;4967835;28;20045;-74
2023/12/25 02:16:39;;;;;;;2.22;0.20;;;12.00;99.90;;;;;;4966738;28;20495;-74
2023/12/25 02:19:35;;;;;;;8.88;1.15;;;12.00;99.90;;;;;;4969448;28;20043;-75
2023/12/25 02:22:02;;;;;;;1.83;0.20;;;12.00;99.90;;;;;;4963515;28;20179;-75
2023/12/25 02:24:30;;;;;;;2.90;0.10;;;12.00;99.90;;;;;;4954491;28;20049;-75
2023/12/25 02:26:56;;;;;;;0.00;0.00;;;12.00;99.90;;;;;;4969091;28;20122;-75
2023/12/25 02:29:22;;;;;;;0.10;0.10;;;12.00;99.90;;;;;;4969503;28;20795;-75
2023/12/25 02:31:48;;;;;;;2.22;0.38;;;12.00;99.90;;;;;;4968441;28;20043;-75
2023/12/25 02:34:14;;;;;;;0.38;0.10;;;12.00;99.90;;;;;;4969492;28;20042;-75
2023/12/25 02:36:40;;;;;;;0.10;0.03;;;12.00;99.90;;;;;;4951977;28;20090;-75
2023/12/25 02:39:06;;;;;;;5.03;0.77;;;11.90;99.90;;;;;;4970234;28;20078;-75
2023/12/25 02:41:32;;;;;;;4.88;0.80;;;11.90;99.90;;;;;;4968129;28;20133;-75
2023/12/25 02:43:57;;;;;;;3.25;0.20;;;11.90;99.90;;;;;;4968181;28;20118;-75
2023/12/25 02:46:23;;;;;;;5.50;0.57;;;11.90;99.90;;;;;;4969269;28;20055;-75
2023/12/25 02:48:49;;;;;;;0.98;0.28;;;11.90;99.90;;;;;;4969444;28;20047;-75
2023/12/25 02:51:14;;;;;;;6.80;0.90;;;11.90;99.90;;;;;;4962660;28;20043;-75
2023/12/25 02:53:40;;;;;;;1.35;0.10;;;11.90;99.90;;;;;;4967476;28;20035;-75
2023/12/25 02:56:06;;;;;;;1.00;0.32;;;11.90;99.90;;;;;;4952970;28;20454;-75
2023/12/25 02:58:32;;;;;;;0.68;0.17;;;11.90;99.90;;;;;;4968668;28;20035;-75
2023/12/25 03:00:57;;;;;;;2.10;0.17;;;11.90;99.90;;;;;;4951700;28;20035;-75
2023/12/25 03:03:23;;;;;;;1.38;0.30;;;11.90;99.90;;;;;;4955123;28;20555;-75
2023/12/25 03:05:49;;;;;;;6.03;1.65;;;11.80;99.90;;;;;;4966936;28;20042;-75
2023/12/25 03:08:14;;;;;;;2.70;0.47;;;11.80;99.90;;;;;;4969370;28;20043;-75
2023/12/25 03:10:41;;;;;;;3.10;0.85;;;11.80;99.90;;;;;;4967932;28;20045;-75
2023/12/25 03:13:07;;;;;;;7.88;0.30;;;11.90;99.90;;;;;;4967180;28;20043;-75
2023/12/25 03:15:34;;;;;;;2.15;0.20;;;11.90;99.90;;;;;;4968523;28;20046;-75
2023/12/25 03:18:00;;;;;;;1.23;0.22;;;11.80;99.90;;;;;;4968160;28;20122;-75
2023/12/25 03:20:25;;;;;;;1.67;0.20;;;11.80;99.90;;;;;;4947959;28;20765;-75
2023/12/25 03:22:51;;;;;;;0.40;0.15;;;11.80;99.90;;;;;;4968006;28;20041;-75
2023/12/25 03:25:17;;;;;;;0.47;0.10;;;11.80;99.90;;;;;;4968659;28;20046;-75
2023/12/25 03:27:42;;;;;;;0.00;0.00;;;11.80;99.90;;;;;;4968786;28;20070;-75
2023/12/25 03:30:08;;;;;;;2.08;0.20;;;11.80;99.90;;;;;;4967339;28;20054;-75
2023/12/25 03:32:34;;;;;;;0.85;0.32;;;11.80;99.90;;;;;;4973343;28;20077;-75
2023/12/25 03:35:00;;;;;;;0.10;0.10;;;11.80;99.90;;;;;;4972775;28;20050;-75
2023/12/25 03:37:26;;;;;;;0.52;0.22;;;11.80;99.90;;;;;;4972207;28;20074;-75
2023/12/25 03:39:52;;;;;;;1.90;0.20;;;11.80;99.90;;;;;;4955776;28;20105;-75
2023/12/25 03:42:18;;;;;;;1.88;0.20;;;11.80;99.90;;;;;;4955458;28;20403;-75
2023/12/25 03:44:44;;;;;;;0.95;0.03;;;11.80;99.90;;;;;;4971581;28;21482;-75
2023/12/25 03:47:11;;;;;;;1.10;0.22;;;11.80;99.90;;;;;;4971764;28;20067;-75
2023/12/25 03:49:37;;;;;;;4.80;0.63;;;11.80;99.90;;;;;;4966364;28;20121;-75
2023/12/25 03:52:03;;;;;;;1.85;0.10;;;11.80;99.90;;;;;;4972608;28;20139;-75
2023/12/25 03:54:29;;;;;;;0.88;0.05;;;11.80;99.90;;;;;;4970481;28;20042;-75
2023/12/25 03:56:54;;;;;;;0.73;0.20;;;11.80;99.90;;;;;;4971544;28;20035;-75
2023/12/25 03:59:20;;;;;;;0.15;0.00;;;11.80;99.90;;;;;;4963261;28;20117;-75
2023/12/25 04:01:46;;;;;;;0.15;0.15;;;11.80;99.90;;;;;;4971359;28;20057;-75
2023/12/25 04:04:11;;;;;;;5.47;0.30;;;11.70;99.90;;;;;;4970705;28;20728;-75
2023/12/25 04:06:37;;;;;;;0.05;0.00;;;11.80;99.90;;;;;;4970863;28;20043;-75
2023/12/25 04:09:04;;;;;;;1.85;0.38;;;11.70;99.90;;;;;;4969578;28;20054;-75
2023/12/25 04:11:30;;;;;;;1.17;0.32;;;11.70;99.90;;;;;;4970715;28;20050;-75
2023/12/25 04:13:56;;;;;;;0.77;0.20;;;11.70;99.90;;;;;;4953433;28;20499;-75
2023/12/25 04:16:26;;;;;;;8.05;0.43;;;11.70;99.90;;;;;;4969907;28;20077;-75
2023/12/25 04:18:53;;;;;;;1.30;0.28;;;11.70;99.90;;;;;;4969111;28;20058;-75
2023/12/25 04:21:27;;;;;;;4.00;0.10;;;11.70;99.90;;;;;;4969187;28;20047;-75
2023/12/25 04:23:54;;;;;;;1.70;0.40;;;11.70;99.90;;;;;;4972258;28;20046;-75
2023/12/25 04:26:20;;;;;;;1.88;0.20;;;11.70;99.90;;;;;;4971706;28;20050;-75
2023/12/25 04:28:47;;;;;;;0.90;0.55;;;11.70;99.90;;;;;;4955887;28;20117;-75
2023/12/25 04:31:13;;;;;;;6.15;0.35;;;11.70;99.90;;;;;;4971244;28;20042;-75
2023/12/25 04:33:39;;;;;;;0.32;0.17;;;11.70;99.90;;;;;;4972310;28;20050;-75
2023/12/25 04:36:05;;;;;;;3.00;0.20;;;11.80;99.90;;;;;;4968159;28;20057;-75
2023/12/25 04:38:31;;;;;;;2.95;0.20;;;11.80;99.90;;;;;;4948621;28;20679;-75
2023/12/25 04:40:58;;;;;;;0.32;0.10;;;11.90;99.90;;;;;;4953809;28;20043;-75
2023/12/25 04:43:24;;;;;;;0.60;0.00;;;11.90;99.90;;;;;;4971943;28;20117;-75
2023/12/25 04:45:50;;;;;;;4.05;0.20;;;11.90;99.90;;;;;;4954855;28;20129;-75
2023/12/25 04:48:15;;;;;;;2.05;0.40;;;12.00;99.90;;;;;;4953766;28;20511;-75
2023/12/25 04:50:41;;;;;;;0.15;0.00;;;12.00;99.90;;;;;;4970167;28;20070;-75
2023/12/25 04:53:07;;;;;;;0.20;0.10;;;12.00;99.90;;;;;;4966017;28;20129;-75
2023/12/25 04:55:33;;;;;;;4.70;0.45;;;12.00;99.90;;;;;;4970120;28;20082;-75
2023/12/25 04:57:59;;;;;;;0.80;0.20;;;12.00;99.90;;;;;;4971596;28;20042;-75
2023/12/25 05:00:24;;;;;;;4.38;0.25;;;12.00;99.90;;;;;;4970303;28;21500;-75
2023/12/25 05:02:50;;;;;;;3.55;0.40;;;12.00;99.90;;;;;;4971650;28;20157;-75
2023/12/25 05:05:16;;;;;;;0.38;0.20;;;12.00;99.90;;;;;;4970094;28;20039;-76
2023/12/25 05:07:42;;;;;;;1.08;0.20;;;12.00;99.90;;;;;;4969410;28;20039;-75
2023/12/25 05:10:08;;;;;;;0.10;0.00;;;12.00;99.90;;;;;;4970617;28;20058;-75
2023/12/25 05:12:34;;;;;;;1.70;0.17;;;11.90;99.90;;;;;;4953347;28;20034;-75
2023/12/25 05:14:59;;;;;;;2.13;0.08;;;11.90;99.90;;;;;;4969024;28;20479;-75
2023/12/25 05:17:25;;;;;;;2.05;0.10;;;11.90;99.90;;;;;;4967660;28;20053;-75
2023/12/25 05:19:51;;;;;;;0.52;0.50;;;11.90;99.90;;;;;;4971488;28;20399;-75
2023/12/25 05:22:16;;;;;;;2.55;0.38;;;11.90;99.90;;;;;;4974215;28;20131;-75
2023/12/25 05:24:42;;;;;;;1.73;0.47;;;11.90;99.90;;;;;;4955561;28;20039;-75
2023/12/25 05:27:08;;;;;;;0.82;0.22;;;11.90;99.90;;;;;;4964516;28;20042;-75
2023/12/25 05:29:34;;;;;;;4.65;0.13;;;11.90;99.90;;;;;;4971082;28;20139;-75
2023/12/25 05:32:00;;;;;;;0.00;0.00;;;11.90;99.90;;;;;;4965941;28;20403;-75
2023/12/25 05:34:27;;;;;;;0.20;0.20;;;11.90;99.90;;;;;;4971407;28;20039;-75
2023/12/25 05:36:53;;;;;;;3.70;0.25;;;11.90;99.90;;;;;;4969011;28;20658;-75
2023/12/25 05:39:19;;;;;;;0.15;0.05;;;11.90;99.90;;;;;;4971314;28;20046;-75
2023/12/25 05:41:45;;;;;;;0.17;0.05;;;11.90;99.90;;;;;;4964843;28;20027;-75
2023/12/25 05:44:11;;;;;;;0.13;0.10;;;11.90;99.90;;;;;;4961745;28;20498;-75
2023/12/25 05:46:36;;;;;;;0.68;0.25;;;11.90;99.90;;;;;;4968692;28;20062;-75
2023/12/25 05:49:03;;;;;;;0.32;0.10;;;11.90;99.90;;;;;;4959845;28;20046;-75
2023/12/25 05:51:29;;;;;;;0.40;0.15;;;11.90;99.90;;;;;;4952025;28;20043;-75
2023/12/25 05:53:55;;;;;;;1.05;0.25;;;11.90;99.90;;;;;;4969551;28;20042;-75
2023/12/25 05:56:21;;;;;;;3.08;0.65;;;11.90;99.90;;;;;;4954621;28;20053;-75
2023/12/25 05:58:47;;;;;;;0.80;0.10;;;11.80;99.90;;;;;;4952565;28;20077;-75
2023/12/25 06:01:15;;;;;;;0.32;0.17;;;11.80;99.90;;;;;;4970345;28;20061;-75
2023/12/25 06:03:41;;;;;;;0.10;0.10;;;11.80;99.90;;;;;;4953219;28;20035;-75
2023/12/25 06:06:07;;;;;;;4.47;0.20;;;11.80;99.90;;;;;;4951685;28;20471;-75
2023/12/25 06:08:33;;;;;;;0.10;0.10;;;11.80;99.90;;;;;;4967295;28;20051;-75
2023/12/25 06:10:59;;;;;;;0.30;0.03;;;11.80;99.90;;;;;;4966754;28;20130;-75
2023/12/25 06:13:25;;;;;;;6.10;0.22;;;11.70;99.90;;;;;;4952455;28;20042;-75
2023/12/25 06:15:51;;;;;;;0.03;0.00;;;11.70;99.90;;;;;;4970034;28;20068;-75
2023/12/25 06:18:17;;;;;;;0.00;0.00;;;11.70;99.90;;;;;;4967324;28;20049;-75
2023/12/25 06:20:43;;;;;;;8.98;0.43;;;11.70;99.90;;;;;;4966900;28;20041;-75
2023/12/25 06:23:09;;;;;;;4.55;0.60;;;11.70;99.90;;;;;;4969076;28;20391;-75
2023/12/25 06:25:35;;;;;;;0.70;0.22;;;11.60;99.90;;;;;;4970028;28;20031;-76
2023/12/25 06:28:01;;;;;;;0.15;0.00;;;11.60;99.90;;;;;;4953815;28;20031;-76
2023/12/25 06:30:27;;;;;;;2.03;0.15;;;11.60;99.90;;;;;;4952592;28;20567;-76
2023/12/25 06:32:53;;;;;;;2.08;0.20;;;11.60;99.90;;;;;;4970025;28;20051;-75
2023/12/25 06:35:19;;;;;;;1.08;0.10;;;11.50;99.90;;;;;;4955653;28;20478;-75
2023/12/25 06:37:44;;;;;;;3.50;0.20;;;11.50;99.90;;;;;;4969710;28;20041;-76
2023/12/25 06:40:11;;;;;;;3.20;0.13;;;11.50;99.90;;;;;;4969211;28;20051;-76
2023/12/25 06:42:36;;;;;;;1.88;0.30;;;11.40;99.90;;;;;;4968247;28;20051;-76
2023/12/25 06:45:02;;;;;;;0.85;0.22;;;11.30;99.90;;;;;;4965676;28;20549;-75
2023/12/25 06:47:28;;;;;;;0.50;0.47;;;11.30;99.90;;;;;;4953143;28;20082;-76
2023/12/25 06:49:54;;;;;;;1.23;0.47;;;11.30;99.90;;;;;;4966675;28;20097;-76
2023/12/25 06:52:19;;;;;;;0.10;0.10;;;11.20;99.90;;;;;;4969532;28;20101;-76
2023/12/25 06:54:45;;;;;;;1.73;0.55;;;11.20;99.90;;;;;;4967721;28;20078;-76
2023/12/25 06:57:13;;;;;;;0.30;0.10;;;11.10;99.90;;;;;;4954029;28;20041;-75
2023/12/25 06:59:43;;;;;;;2.50;0.28;;;11.10;99.90;;;;;;4966521;28;20059;-76
2023/12/25 07:02:09;;;;;;;4.93;0.63;;;11.10;99.90;;;;;;4965766;28;20066;-76
2023/12/25 07:04:35;;;;;;;3.72;0.38;;;11.10;99.90;;;;;;4956747;28;20073;-76
2023/12/25 07:07:01;;;;;;;3.72;0.40;;;11.10;99.90;;;;;;4971675;28;20055;-76
2023/12/25 07:09:26;;;;;;;1.27;0.32;;;11.10;99.90;;;;;;4967142;28;20480;-76
2023/12/25 07:11:52;;;;;;;0.45;0.00;;;11.00;99.90;;;;;;4973196;28;20035;-76
2023/12/25 07:14:18;;;;;;;2.90;0.15;;;11.00;99.90;;;;;;4968023;28;20045;-76
2023/12/25 07:16:44;;;;;;;1.85;0.22;;;11.10;99.90;;;;;;4957624;28;20446;-76
2023/12/25 07:19:10;;;;;;;2.75;0.30;;;11.00;99.90;;;;;;4953800;28;20082;-76
2023/12/25 07:21:35;;;;;;;0.10;0.00;;;11.00;99.90;;;;;;4972618;28;20047;-76
2023/12/25 07:24:01;;;;;;;2.65;0.10;;;11.00;99.90;;;;;;4956343;28;20088;-76
2023/12/25 07:26:28;;;;;;;1.05;0.25;;;11.00;99.90;;;;;;4972688;28;20042;-76
2023/12/25 07:28:54;;;;;;;2.55;0.22;;;10.90;99.90;;;;;;4969709;28;20047;-76
2023/12/25 07:31:23;;;;;;;6.82;0.45;;;10.90;99.90;;;;;;4967237;28;20047;-76
2023/12/25 07:33:50;;;;;;;2.72;0.15;;;10.90;99.90;;;;;;4970468;28;20439;-76
2023/12/25 07:36:16;;;;;;;0.20;0.17;;;10.80;99.90;;;;;;4956572;28;20127;-76
2023/12/25 07:38:42;;;;;;;0.43;0.10;;;10.80;99.90;;;;;;4973067;28;20414;-76
2023/12/25 07:41:08;;;;;;;1.77;0.13;;;10.80;99.90;;;;;;4971548;28;20064;-76
2023/12/25 07:43:35;;;;;;;1.95;0.10;;;10.80;99.90;;;;;;4957669;28;20035;-76
2023/12/25 07:46:05;;;;;;;0.38;0.10;;;10.80;99.90;;;;;;4965003;28;20066;-75
2023/12/25 07:48:31;;;;;;;0.88;0.35;;;10.80;99.90;;;;;;4947340;28;20042;-76
2023/12/25 07:50:57;;;;;;;3.20;0.40;;;10.80;99.90;;;;;;4967745;28;20471;-76
2023/12/25 07:53:23;;;;;;;1.85;0.00;;;10.70;99.90;;;;;;4969755;28;20081;-76
2023/12/25 07:55:48;;;;;;;0.00;0.00;;;10.70;99.90;;;;;;4966089;28;20129;-76
2023/12/25 07:58:17;;;;;;;1.90;0.47;;;10.70;99.90;;;;;;4951488;28;20056;-76
2023/12/25 08:00:43;;;;;;;2.47;0.47;;;10.70;99.90;;;;;;4967048;28;20077;-76
2023/12/25 08:03:10;;;;;;;7.38;1.27;;;10.70;99.90;;;;;;4969178;28;20054;-76
2023/12/25 08:05:36;;;;;;;0.32;0.10;;;10.60;99.90;;;;;;4966158;28;20082;-76
2023/12/25 08:08:02;;;;;;;1.45;0.75;;;10.60;99.90;;;;;;4951525;28;20093;-76
2023/12/25 08:10:28;;;;;;;8.93;2.00;;;10.60;99.90;;;;;;4983786;28;20054;-76
2023/12/25 08:12:54;;;;;;;1.13;0.82;;;10.60;99.90;;;;;;4953679;28;20399;-76
2023/12/25 08:15:20;;;;;;;1.17;0.30;;;10.70;99.90;;;;;;4971010;28;20471;-76
2023/12/25 08:17:46;;;;;;;0.98;0.10;;;10.70;99.90;;;;;;4968474;28;20163;-76
2023/12/25 08:20:12;;;;;;;1.27;0.45;;;10.70;99.90;;;;;;4971818;28;20526;-76
2023/12/25 08:22:37;;;;;;;3.40;0.52;;;10.60;99.90;;;;;;4949831;28;20047;-76
2023/12/25 08:25:04;;;;;;;5.63;0.13;;;10.60;99.90;;;;;;4971306;28;20062;-76
2023/12/25 08:27:29;;;;;;;7.30;0.40;;;10.60;99.90;;;;;;4966758;28;20043;-76
2023/12/25 08:29:55;;;;;;;0.17;0.17;;;10.60;99.90;;;;;;4956945;28;20090;-76
2023/12/25 08:32:21;;;;;;;3.08;0.43;;;10.60;99.90;;;;;;4968438;28;20042;-76
2023/12/25 08:34:47;;;;;;;3.65;0.15;;;10.60;99.90;;;;;;4972058;28;20372;-76
2023/12/25 08:37:12;;;;;;;1.17;0.15;;;10.60;99.90;;;;;;4969170;28;20049;-76
2023/12/25 08:39:38;;;;;;;0.88;0.03;;;10.60;99.90;;;;;;4969711;28;20119;-76
2023/12/25 08:42:04;;;;;;;1.77;0.75;;;10.60;99.90;;;;;;4949554;28;20088;-76
2023/12/25 08:44:32;;;;;;;1.33;0.00;;;10.60;99.90;;;;;;4967905;28;20525;-76
2023/12/25 08:46:58;;;;;;;0.00;0.00;;;10.60;99.90;;;;;;4966851;28;20094;-76
2023/12/25 08:49:25;;;;;;;1.38;0.20;;;10.60;99.90;;;;;;4968333;28;20054;-76
2023/12/25 08:51:51;;;;;;;2.35;0.73;;;10.60;99.90;;;;;;4970345;28;20729;-76
2023/12/25 08:54:17;;;;;;;1.65;0.40;;;10.60;99.90;;;;;;4966893;28;20083;-76
2023/12/25 08:56:43;;;;;;;5.35;0.68;;;10.60;99.90;;;;;;4970050;28;20471;-76
2023/12/25 08:59:09;;;;;;;1.63;0.25;;;10.60;99.90;;;;;;4965787;28;20043;-76
2023/12/25 09:01:35;;;;;;;4.47;0.40;;;10.60;99.90;;;;;;4967091;28;20049;-76
2023/12/25 09:04:01;;;;;;;3.85;0.52;;;10.60;99.90;;;;;;4967480;28;20439;-76
2023/12/25 09:06:26;;;;;;;0.35;0.00;;;10.60;99.90;;;;;;4965615;28;20487;-76
2023/12/25 09:08:52;;;;;;;0.70;0.30;;;10.60;99.90;;;;;;4966980;28;20039;-76
2023/12/25 09:11:18;;;;;;;0.52;0.00;;;10.60;99.90;;;;;;4952175;28;20073;-76
2023/12/25 09:13:44;;;;;;;2.30;0.30;;;10.70;99.90;;;;;;4965110;28;20040;-76
2023/12/25 09:16:10;;;;;;;1.75;0.08;;;10.70;99.90;;;;;;4970266;28;20940;-76
2023/12/25 09:18:36;;;;;;;4.28;0.25;;;10.70;99.90;;;;;;4966945;28;20082;-76
2023/12/25 09:21:05;;;;;;;1.80;0.30;;;10.70;99.90;;;;;;4945821;28;20070;-76
2023/12/25 09:23:30;;;;;;;1.77;0.10;;;10.70;99.90;;;;;;4960756;28;20038;-76
2023/12/25 09:25:56;;;;;;;1.27;0.52;;;10.70;99.90;;;;;;4962463;28;20169;-76
2023/12/25 09:28:22;;;;;;;1.83;0.70;;;10.70;99.90;;;;;;4952544;28;20043;-76
2023/12/25 09:30:48;;;;;;;6.90;0.65;;;10.80;99.90;;;;;;4966246;28;20053;-76
2023/12/25 09:33:13;;;;;;;1.05;0.82;;;10.90;99.90;;;;;;4952915;28;20039;-76
2023/12/25 09:35:40;;;;;;;0.32;0.30;;;10.90;99.90;;;;;;4965672;28;20533;-76
2023/12/25 09:38:06;;;;;;;1.15;0.30;;;11.00;99.90;;;;;;4967959;28;20089;-76
2023/12/25 09:40:32;;;;;;;0.38;0.28;;;11.00;99.90;;;;;;4964899;28;20043;-76
2023/12/25 09:43:03;;;;;;;0.77;0.20;;;11.00;99.90;;;;;;4967765;28;20043;-76
2023/12/25 09:45:35;;;;;;;0.10;0.08;;;11.20;99.90;;;;;;4962513;28;20814;-76
2023/12/25 09:48:02;;;;;;;0.60;0.20;;;11.20;99.90;;;;;;4966261;28;20057;-76
2023/12/25 09:50:30;;;;;;;3.03;0.15;;;11.20;99.90;;;;;;4965848;28;20055;-76
2023/12/25 09:52:55;;;;;;;2.60;0.60;;;11.30;99.90;;;;;;4967231;28;20137;-76
2023/12/25 09:55:21;;;;;;;2.90;0.63;;;11.40;99.90;;;;;;4963667;28;20527;-76
2023/12/25 09:57:50;;;;;;;8.70;3.65;;;11.40;99.90;;;;;;4967995;28;20063;-76
2023/12/25 10:00:17;;;;;;;7.05;4.05;;;11.50;99.90;;;;;;4962189;28;20042;-76
2023/12/25 10:02:45;;;;;;;6.03;1.88;;;11.50;99.90;;;;;;4966836;28;20050;-76
2023/12/25 10:05:12;;;;;;;0.60;0.32;;;11.50;99.90;;;;;;4965228;28;20122;-76
2023/12/25 10:07:37;;;;;;;3.00;0.30;;;11.50;99.90;;;;;;4966023;28;20046;-76
2023/12/25 10:10:05;;;;;;;1.23;0.50;;;11.50;99.90;;;;;;4949847;28;20038;-76
2023/12/25 10:12:31;;;;;;;5.32;0.45;;;11.50;99.90;;;;;;4967495;28;20038;-76
2023/12/25 10:14:56;;;;;;;0.50;0.20;;;11.50;99.90;;;;;;4935601;28;20054;-76
2023/12/25 10:17:22;;;;;;;1.35;0.20;;;11.50;99.90;;;;;;4963240;28;20055;-76
2023/12/25 10:19:55;;;;;;;7.53;0.85;;;11.40;99.90;;;;;;4966994;28;20050;-76
2023/12/25 10:22:33;;;;;;;2.05;0.30;;;11.40;99.90;;;;;;4968150;28;20129;-76
2023/12/25 10:25:13;;;;;;;0.20;0.10;;;11.40;99.90;;;;;;4948725;28;20047;-76
2023/12/25 10:27:43;;;;;;;7.22;2.22;;;11.40;99.90;;;;;;4966524;28;20051;-76
2023/12/25 10:30:20;;;;;;;0.65;0.20;;;11.50;99.90;;;;;;4951646;28;20091;-76
2023/12/25 10:32:47;;;;;;;1.55;1.20;;;11.50;99.90;;;;;;4945286;28;20703;-76
2023/12/25 10:35:15;;;;;;;2.67;0.68;;;11.60;99.90;;;;;;4964727;28;20035;-76
2023/12/25 10:37:42;;;;;;;2.58;0.63;;;11.70;99.90;;;;;;4963278;28;20075;-76
2023/12/25 10:40:19;;;;;;;2.40;0.40;;;11.70;99.90;;;;;;4968590;28;20503;-76
2023/12/25 10:42:48;;;;;;;3.83;0.28;;;11.70;99.90;;;;;;4982954;28;20043;-76
2023/12/25 10:45:21;;;;;;;0.17;0.10;;;11.70;99.90;;;;;;4962246;28;20042;-76
2023/12/25 10:47:48;;;;;;;0.52;0.32;;;11.60;99.90;;;;;;4927465;28;1122583;-76
2023/12/25 10:50:14;;;;;;;2.05;0.63;;;11.60;99.90;;;;;;4967242;28;20062;-76
2023/12/25 10:52:43;;;;;;;3.55;0.20;;;11.50;99.90;;;;;;4964224;28;20459;-76
2023/12/25 10:55:10;;;;;;;4.03;0.52;;;11.60;99.90;;;;;;4968473;28;20066;-76
2023/12/25 10:57:36;;;;;;;0.35;0.08;;;11.60;99.90;;;;;;4968085;28;20614;-76
2023/12/25 11:00:04;;;;;;;4.75;0.55;;;11.50;99.90;;;;;;4969651;28;20133;-76
2023/12/25 11:02:35;;;;;;;0.55;0.20;;;11.50;99.90;;;;;;4967427;28;20043;-76
2023/12/25 11:05:02;;;;;;;7.95;0.50;;;11.50;99.90;;;;;;4965232;28;20047;-76
2023/12/25 11:07:28;;;;;;;1.45;0.22;;;11.50;99.90;;;;;;4952474;28;20043;-76
2023/12/25 11:09:54;;;;;;;3.22;0.30;;;11.50;99.90;;;;;;4969145;28;20557;-76
2023/12/25 11:12:20;;;;;;;2.42;0.20;;;11.50;99.90;;;;;;4953385;28;20051;-76
2023/12/25 11:14:46;;;;;;;2.08;0.47;;;11.50;99.90;;;;;;4969273;28;20129;-76
2023/12/25 11:17:13;;;;;;;1.02;0.15;;;11.50;99.90;;;;;;4950898;28;20045;-76
2023/12/25 11:19:38;;;;;;;2.05;0.50;;;11.50;99.90;;;;;;4966996;28;20109;-76
2023/12/25 11:22:28;;;;;;;2.40;0.30;;;11.50;99.90;;;;;;4964145;28;20046;-76
2023/12/25 11:24:56;;;;;;;4.28;0.63;;;11.50;99.90;;;;;;4967535;28;20078;-76
2023/12/25 11:27:21;;;;;;;1.77;0.25;;;11.50;99.90;;;;;;4968035;28;20035;-76
2023/12/25 11:29:48;;;;;;;0.35;0.25;;;11.50;99.90;;;;;;4969979;28;20423;-76
2023/12/25 11:32:17;;;;;;;0.45;0.20;;;11.50;99.90;;;;;;4951940;28;20046;-76
2023/12/25 11:34:48;;;;;;;0.20;0.10;;;11.60;99.90;;;;;;4964794;28;20046;-76
2023/12/25 11:37:23;;;;;;;2.75;0.35;;;11.60;99.90;;;;;;4967371;28;20045;-76
2023/12/25 11:40:05;;;;;;;0.75;0.30;;;11.70;99.90;;;;;;4951692;28;20051;-76
2023/12/25 11:42:35;;;;;;;2.35;0.20;;;11.70;99.90;;;;;;4957642;28;20066;-76
2023/12/25 11:45:06;;;;;;;1.55;0.40;;;11.60;99.90;;;;;;4967163;28;20407;-76
2023/12/25 11:47:39;;;;;;;0.90;0.40;;;11.60;99.90;;;;;;4967865;28;20078;-76
2023/12/25 11:50:07;;;;;;;6.40;0.27;;;11.60;99.90;;;;;;4951723;28;20048;-76
2023/12/25 11:52:46;;;;;;;4.95;0.28;;;11.70;99.90;;;;;;4967509;28;20039;-76
2023/12/25 11:55:21;;;;;;;1.95;0.40;;;11.70;99.90;;;;;;4971123;28;20090;-76
2023/12/25 11:57:47;;;;;;;0.30;0.10;;;11.80;99.90;;;;;;4970103;28;20038;-76
2023/12/25 12:00:26;;;;;;;2.60;0.65;;;11.80;99.90;;;;;;4972810;28;20085;-76
2023/12/25 12:02:52;;;;;;;0.65;0.10;;;11.70;99.90;;;;;;4972033;28;20039;-76
2023/12/25 12:05:19;;;;;;;2.15;0.30;;;11.80;99.90;;;;;;4955051;28;20042;-76
2023/12/25 12:07:45;;;;;;;0.80;0.22;;;11.80;99.90;;;;;;4971153;28;20491;-76
2023/12/25 12:10:14;;;;;;;0.60;0.20;;;11.80;99.90;;;;;;4971845;28;20085;-76
2023/12/25 12:12:41;;;;;;;0.10;0.05;;;11.90;99.90;;;;;;4961793;28;20641;-76
2023/12/25 12:15:08;;;;;;;1.77;0.52;;;11.90;99.90;;;;;;4970818;28;20134;-76
2023/12/25 12:17:35;;;;;;;0.10;0.10;;;11.90;99.90;;;;;;4961406;28;20042;-76
2023/12/25 12:20:02;;;;;;;5.93;0.20;;;12.00;99.90;;;;;;4972681;28;20050;-76
2023/12/25 12:22:28;;;;;;;0.45;0.20;;;12.10;99.90;;;;;;4962806;28;20047;-76
2023/12/25 12:25:19;;;;;;;3.15;0.35;;;12.20;99.90;;;;;;4972663;28;20082;-76
2023/12/25 12:27:45;;;;;;;0.98;0.65;;;12.30;99.90;;;;;;4971930;28;20046;-76
2023/12/25 12:30:11;;;;;;;1.27;0.47;;;12.40;99.90;;;;;;4954742;28;20047;-77
2023/12/25 12:32:38;;;;;;;1.80;0.17;;;12.50;99.90;;;;;;4969938;28;20566;-77
2023/12/25 12:35:05;;;;;;;0.32;0.10;;;12.50;99.90;;;;;;4955501;28;20085;-77
2023/12/25 12:37:35;;;;;;;3.55;0.45;;;12.50;99.90;;;;;;4954725;28;20042;-77
2023/12/25 12:40:05;;;;;;;2.05;0.38;;;12.50;99.90;;;;;;4971714;28;20050;-76
2023/12/25 12:42:32;;;;;;;0.60;0.10;;;12.50;99.90;;;;;;4949351;28;20074;-76